createdAt,value
2018-09-29T00:01:43.742Z,4.95
2018-09-29T00:06:48.186Z,4.55
2018-09-29T00:11:53.962Z,5.47
2018-09-29T00:16:58.600Z,4.83
2018-09-29T00:22:03.543Z,6.22
2018-09-29T00:27:08.104Z,6.08
2018-09-29T00:32:12.927Z,6.90
2018-09-29T00:37:17.463Z,7.15
2018-09-29T00:42:22.386Z,6.45
2018-09-29T00:47:27.018Z,6.47
2018-09-29T00:52:31.939Z,5.22
2018-09-29T00:57:36.521Z,4.95
2018-09-29T01:02:41.187Z,5.28
2018-09-29T01:07:46.070Z,4.90
2018-09-29T01:12:50.721Z,5.60
2018-09-29T01:17:55.430Z,4.97
2018-09-29T01:23:00.186Z,5.67
2018-09-29T01:28:04.850Z,5.72
2018-09-29T01:33:10.510Z,5.60
2018-09-29T01:38:15.148Z,5.55
2018-09-29T01:43:19.953Z,6.85
2018-09-29T01:48:24.552Z,6.37
2018-09-29T01:53:29.255Z,5.92
2018-09-29T01:58:33.812Z,6.25
2018-09-29T02:03:38.443Z,6.30
2018-09-29T02:08:43.132Z,6.33
2018-09-29T02:13:48.093Z,5.95
2018-09-29T02:18:53.080Z,5.53
2018-09-29T02:23:57.500Z,5.90
2018-09-29T02:29:02.504Z,6.40
2018-09-29T02:34:07.097Z,5.03
2018-09-29T02:39:12.955Z,6.37
2018-09-29T02:44:17.408Z,5.45
2018-09-29T02:49:22.044Z,5.42
2018-09-29T02:54:26.780Z,5.60
2018-09-29T02:59:31.422Z,6.15
2018-09-29T03:04:35.722Z,5.40
2018-09-29T03:09:40.102Z,5.95
2018-09-29T03:14:50.954Z,5.65
2018-09-29T03:19:55.434Z,4.62
2018-09-29T03:25:00.340Z,4.50
2018-09-29T03:30:05.135Z,4.50
2018-09-29T03:35:09.575Z,3.62
2018-09-29T03:40:14.309Z,4.12
2018-09-29T03:45:18.761Z,3.95
2018-09-29T03:50:24.378Z,3.52
2018-09-29T03:55:28.867Z,4.40
2018-09-29T04:00:33.583Z,3.90
2018-09-29T04:05:38.015Z,5.10
2018-09-29T04:10:42.636Z,3.83
2018-09-29T04:15:47.366Z,3.90
2018-09-29T04:20:51.815Z,3.77
2018-09-29T04:25:56.462Z,4.30
2018-09-29T04:31:01.003Z,3.90
2018-09-29T04:36:05.561Z,5.00
2018-09-29T04:41:10.236Z,4.83
2018-09-29T04:46:15.215Z,5.37
2018-09-29T04:51:19.608Z,5.55
2018-09-29T04:56:24.140Z,5.03
2018-09-29T05:01:29.603Z,5.53
2018-09-29T05:06:34.245Z,4.97
2018-09-29T05:11:38.715Z,4.70
2018-09-29T05:16:43.124Z,5.85
2018-09-29T05:21:47.710Z,4.37
2018-09-29T05:26:58.680Z,4.90
2018-09-29T05:32:03.218Z,4.58
2018-09-29T05:37:07.742Z,4.72
2018-09-29T05:42:12.804Z,4.53
2018-09-29T05:47:17.217Z,3.60
2018-09-29T05:52:21.638Z,3.65
2018-09-29T05:57:26.353Z,3.65
2018-09-29T06:02:30.719Z,3.02
2018-09-29T06:07:35.936Z,2.77
2018-09-29T06:12:40.209Z,4.25
2018-09-29T06:17:45.219Z,2.85
2018-09-29T06:22:49.622Z,2.52
2018-09-29T06:27:54.331Z,2.55
2018-09-29T06:32:58.746Z,2.05
2018-09-29T06:38:04.116Z,1.85
2018-09-29T06:43:08.671Z,2.80
2018-09-29T06:48:13.385Z,2.33
2018-09-29T06:53:17.965Z,2.37
2018-09-29T06:58:22.602Z,2.55
2018-09-29T07:03:27.054Z,2.12
2018-09-29T07:08:31.582Z,2.50
2018-09-29T07:13:37.028Z,2.52
2018-09-29T07:18:41.439Z,2.40
2018-09-29T07:23:45.759Z,2.10
2018-09-29T07:28:51.669Z,3.02
2018-09-29T07:33:56.075Z,2.50
2018-09-29T07:39:00.488Z,3.22
2018-09-29T07:44:04.900Z,3.08
2018-09-29T07:49:09.351Z,3.72
2018-09-29T07:54:13.882Z,3.50
2018-09-29T07:59:18.299Z,3.08
2018-09-29T08:04:22.949Z,2.42
2018-09-29T08:09:27.288Z,2.98
2018-09-29T08:14:31.805Z,3.22
2018-09-29T08:19:36.124Z,3.58
2018-09-29T08:24:41.803Z,3.33
2018-09-29T08:29:46.209Z,4.05
2018-09-29T08:34:51.469Z,3.15
2018-09-29T08:39:55.902Z,4.10
2018-09-29T08:50:29.435Z,8.50
2018-09-29T08:55:34.052Z,4.05
2018-09-29T09:00:39.739Z,3.55
2018-09-29T09:05:44.866Z,3.98
2018-09-29T09:10:49.490Z,3.65
2018-09-29T09:15:54.163Z,4.22
2018-09-29T09:20:58.755Z,4.05
2018-09-29T09:26:03.553Z,4.00
2018-09-29T09:31:09.505Z,4.45
2018-09-29T09:36:13.920Z,4.30
2018-09-29T09:41:19.016Z,4.97
2018-09-29T09:46:24.125Z,5.47
2018-09-29T09:51:29.031Z,5.75
2018-09-29T09:56:34.380Z,5.50
2018-09-29T10:01:44.095Z,5.92
2018-09-29T10:06:48.616Z,5.37
2018-09-29T10:11:53.199Z,6.35
2018-09-29T10:16:58.031Z,6.87
2018-09-29T10:22:04.205Z,7.40
2018-09-29T10:27:09.279Z,6.80
2018-09-29T10:32:20.741Z,7.50
2018-09-29T10:37:32.584Z,7.20
2018-09-29T10:42:37.767Z,6.47
2018-09-29T10:47:43.109Z,6.75
2018-09-29T10:52:47.753Z,6.75
2018-09-29T10:57:54.061Z,6.40
2018-09-29T11:02:58.678Z,6.87
2018-09-29T11:08:03.165Z,5.70
2018-09-29T11:13:11.346Z,5.50
2018-09-29T11:18:15.738Z,5.80
2018-09-29T11:23:21.731Z,6.28
2018-09-29T11:28:27.079Z,6.47
2018-09-29T11:33:32.193Z,7.10
2018-09-29T11:38:36.722Z,6.50
2018-09-29T11:43:41.107Z,6.70
2018-09-29T11:48:45.446Z,6.75
2018-09-29T11:53:50.865Z,6.53
2018-09-29T11:58:55.933Z,7.40
2018-09-29T12:04:01.410Z,7.40
2018-09-29T12:09:09.079Z,6.53
2018-09-29T12:14:14.401Z,6.83
2018-09-29T12:19:18.683Z,7.30
2018-09-29T12:24:23.549Z,6.70
2018-09-29T12:29:28.231Z,7.12
2018-09-29T12:34:33.639Z,7.28
2018-09-29T12:39:37.905Z,6.72
2018-09-29T12:44:42.266Z,6.80
2018-09-29T12:49:46.758Z,7.00
2018-09-29T12:54:51.874Z,7.40
2018-09-29T12:59:56.524Z,7.10
2018-09-29T13:05:01.047Z,6.15
2018-09-29T13:10:05.585Z,6.20
2018-09-29T13:15:10.385Z,5.85
2018-09-29T13:20:15.574Z,5.55
2018-09-29T13:25:20.556Z,5.95
2018-09-29T13:30:25.188Z,5.97
2018-09-29T13:35:29.551Z,5.40
2018-09-29T13:40:34.666Z,5.72
2018-09-29T13:45:39.152Z,5.03
2018-09-29T13:50:43.754Z,5.87
2018-09-29T13:55:49.009Z,5.42
2018-09-29T14:00:53.505Z,5.05
2018-09-29T14:05:58.152Z,5.20
2018-09-29T14:11:02.704Z,4.60
2018-09-29T14:16:07.657Z,4.85
2018-09-29T14:21:12.638Z,5.30
2018-09-29T14:26:17.281Z,5.25
2018-09-29T14:31:21.609Z,5.45
2018-09-29T14:36:25.906Z,4.55
2018-09-29T14:41:30.410Z,4.53
2018-09-29T14:46:35.090Z,4.28
2018-09-29T14:51:40.297Z,4.47
2018-09-29T14:56:44.692Z,4.30
2018-09-29T15:01:49.141Z,3.67
2018-09-29T15:06:53.789Z,5.10
2018-09-29T15:12:02.953Z,4.20
2018-09-29T15:17:12.847Z,4.00
2018-09-29T15:22:18.317Z,4.35
2018-09-29T15:27:23.091Z,4.83
2018-09-29T15:32:28.001Z,4.78
2018-09-29T15:37:32.546Z,4.62
2018-09-29T15:42:37.315Z,3.83
2018-09-29T15:47:41.742Z,3.98
2018-09-29T15:52:46.333Z,3.47
2018-09-29T15:57:50.848Z,4.45
2018-09-29T16:02:55.326Z,3.55
2018-09-29T16:07:59.745Z,3.83
2018-09-29T16:13:04.182Z,3.55
2018-09-29T16:18:09.252Z,3.87
2018-09-29T16:23:13.847Z,3.27
2018-09-29T16:28:18.307Z,3.83
2018-09-29T16:33:22.643Z,3.77
2018-09-29T16:38:27.835Z,4.20
2018-09-29T16:43:32.311Z,3.58
2018-09-29T16:48:37.340Z,3.70
2018-09-29T16:53:41.740Z,3.90
2018-09-29T16:58:46.345Z,4.20
2018-09-29T17:03:50.643Z,4.28
2018-09-29T17:08:54.942Z,4.47
2018-09-29T17:13:59.242Z,3.98
2018-09-29T17:19:03.906Z,3.87
2018-09-29T17:24:09.257Z,3.77
2018-09-29T17:29:13.863Z,3.08
2018-09-29T17:34:19.021Z,5.10
2018-09-29T17:39:23.708Z,3.77
2018-09-29T17:44:28.392Z,3.27
2018-09-29T17:49:32.880Z,3.75
2018-09-29T17:54:38.465Z,3.70
2018-09-29T17:59:43.110Z,3.45
2018-09-29T18:05:03.253Z,3.20
2018-09-29T18:10:12.795Z,3.85
2018-09-29T18:15:25.464Z,3.37
2018-09-29T18:20:30.617Z,4.10
2018-09-29T18:25:36.393Z,3.72
2018-09-29T18:30:42.706Z,3.27
2018-09-29T18:35:49.978Z,3.90
2018-09-29T18:40:55.106Z,3.60
2018-09-29T18:45:59.658Z,3.25
2018-09-29T18:51:04.463Z,3.00
2018-09-29T18:56:09.771Z,2.90
2018-09-29T19:01:14.685Z,4.80
2018-09-29T19:11:58.996Z,4.08
2018-09-29T19:17:03.572Z,4.00
2018-09-29T19:22:08.032Z,3.35
2018-09-29T19:27:14.535Z,4.50
2018-09-29T19:32:19.173Z,4.62
2018-09-29T19:37:29.493Z,4.55
2018-09-29T19:42:35.595Z,2.70
2018-09-29T19:47:41.634Z,3.15
2018-09-29T19:52:46.287Z,3.42
2018-09-29T19:57:50.786Z,3.00
2018-09-29T20:02:55.953Z,3.00
2018-09-29T20:08:00.511Z,3.27
2018-09-29T20:13:04.995Z,2.52
2018-09-29T20:18:09.581Z,3.15
2018-09-29T20:23:14.310Z,3.25
2018-09-29T20:28:18.928Z,3.67
2018-09-29T20:33:24.555Z,3.55
2018-09-29T20:38:29.878Z,3.08
2018-09-29T20:43:34.522Z,3.25
2018-09-29T20:48:39.212Z,3.15
2018-09-29T20:53:43.613Z,3.80
2018-09-29T20:58:48.251Z,3.70
2018-09-29T21:03:52.701Z,3.60
2018-09-29T21:08:57.635Z,3.20
2018-09-29T21:14:02.150Z,3.30
2018-09-29T21:19:06.738Z,3.50
2018-09-29T21:24:11.365Z,3.20
2018-09-29T21:29:17.441Z,4.00
2018-09-29T21:34:22.201Z,3.70
2018-09-29T21:39:27.125Z,3.00
2018-09-29T21:44:31.552Z,3.02
2018-09-29T21:49:37.994Z,2.70
2018-09-29T21:54:44.847Z,2.98
2018-09-29T22:06:18.522Z,3.02
2018-09-29T22:11:26.129Z,3.35
2018-09-29T22:16:33.273Z,2.65
2018-09-29T22:21:39.601Z,2.70
2018-09-29T22:26:45.196Z,2.70
2018-09-29T22:31:51.133Z,3.00
2018-09-29T22:36:56.791Z,3.00
2018-09-29T22:42:03.577Z,2.60
2018-09-29T22:47:14.890Z,3.20
2018-09-29T22:52:20.293Z,2.77
2018-09-29T22:57:25.223Z,2.75
2018-09-29T23:02:29.760Z,3.00
2018-09-29T23:07:34.389Z,2.87
2018-09-29T23:12:38.776Z,3.20
2018-09-29T23:17:43.287Z,3.00
2018-09-29T23:22:47.707Z,2.50
2018-09-29T23:27:52.002Z,2.80
2018-09-29T23:32:56.439Z,2.95
2018-09-29T23:38:01.064Z,2.87
2018-09-29T23:43:05.776Z,3.00
2018-09-29T23:48:10.838Z,2.72
2018-09-29T23:53:15.382Z,2.62
2018-09-29T23:58:19.577Z,3.00
